Station History

Weather Underground - logo

Station Historical Data
Daily Summary for September 23, 2017 Units:  English    Metric   Both
« Previous Day
Next Day »
Daily Weekly Monthly Yearly Custom
  High: Low: Average:
Temperature: 77.9 °F 47.9 °F 62.2 °F
Dew Point: 52.0 °F 39.9 °F 47.5 °F
Humidity: 89 % 27 % 63 %
Wind Speed: 5.8 mph 0.0 mph 0.8 mph
Wind Gust: 5.8 mph - -
Wind:- - South
Pressure: 29.90 in 29.82 in -
Precipitation: 0.00 in    
Historical Graphs
 
 
Tabular Data for September 23, 2017
Time Temperature Dew Point Pressure Wind Wind Speed Wind Gust Humidity Rainfall Rate (Hourly)
00:02 54.7 °F 50.0 °F 29.82 in Calm     84 % 0.00 in
00:07 54.5 °F 49.8 °F 29.82 in Calm     84 % 0.00 in
00:12 54.3 °F 49.9 °F 29.82 in Calm     85 % 0.00 in
00:17 54.1 °F 49.7 °F 29.82 in Calm     85 % 0.00 in
00:22 53.9 °F 49.5 °F 29.82 in Calm     85 % 0.00 in
00:27 53.9 °F 49.2 °F 29.82 in Calm     84 % 0.00 in
00:32 53.8 °F 49.1 °F 29.82 in Calm     84 % 0.00 in
00:37 53.6 °F 48.9 °F 29.82 in Calm     84 % 0.00 in
00:42 53.7 °F 49.0 °F 29.82 in Calm     84 % 0.00 in
00:47 53.9 °F 49.2 °F 29.82 in Calm     84 % 0.00 in
00:52 53.9 °F 49.2 °F 29.82 in Calm     84 % 0.00 in
00:57 53.8 °F 49.1 °F 29.82 in Calm     84 % 0.00 in
01:02 53.8 °F 49.4 °F 29.83 in Calm     85 % 0.00 in
01:07 53.8 °F 49.4 °F 29.83 in Calm     85 % 0.00 in
01:12 53.6 °F 49.2 °F 29.83 in Calm     85 % 0.00 in
01:17 53.5 °F 49.1 °F 29.83 in Calm     85 % 0.00 in
01:22 53.3 °F 48.9 °F 29.83 in Calm     85 % 0.00 in
01:27 53.1 °F 48.7 °F 29.83 in Calm     85 % 0.00 in
01:32 52.9 °F 48.8 °F 29.83 in Calm     86 % 0.00 in
01:37 52.7 °F 48.6 °F 29.83 in Calm     86 % 0.00 in
01:42 52.7 °F 48.6 °F 29.83 in Calm     86 % 0.00 in
01:47 52.6 °F 48.2 °F 29.83 in Calm     85 % 0.00 in
01:52 52.5 °F 48.1 °F 29.83 in Calm     85 % 0.00 in
01:57 52.4 °F 48.3 °F 29.83 in Calm     86 % 0.00 in
02:02 52.4 °F 48.3 °F 29.83 in Calm     86 % 0.00 in
02:07 52.5 °F 48.1 °F 29.83 in Calm     85 % 0.00 in
02:12 52.4 °F 48.0 °F 29.83 in Calm     85 % 0.00 in
02:17 52.3 °F 47.9 °F 29.83 in Calm     85 % 0.00 in
02:22 52.3 °F 47.6 °F 29.83 in Calm     84 % 0.00 in
02:27 52.3 °F 47.6 °F 29.83 in Calm     84 % 0.00 in
02:33 52.1 °F 47.4 °F 29.83 in Calm     84 % 0.00 in
02:38 51.7 °F 47.0 °F 29.83 in Calm     84 % 0.00 in
02:43 51.4 °F 46.7 °F 29.83 in Calm     84 % 0.00 in
02:48 51.3 °F 46.6 °F 29.83 in Calm     84 % 0.00 in
02:53 51.2 °F 46.8 °F 29.83 in Calm     85 % 0.00 in
02:58 51.2 °F 46.8 °F 29.83 in Calm     85 % 0.00 in
03:03 51.1 °F 46.7 °F 29.83 in Calm     85 % 0.00 in
03:08 51.1 °F 46.7 °F 29.83 in Calm     85 % 0.00 in
03:13 51.1 °F 46.7 °F 29.83 in Calm     85 % 0.00 in
03:18 51.2 °F 46.8 °F 29.83 in Calm     85 % 0.00 in
03:23 51.2 °F 46.8 °F 29.83 in Calm     85 % 0.00 in
03:28 51.3 °F 46.6 °F 29.83 in Calm     84 % 0.00 in
03:33 51.2 °F 46.5 °F 29.83 in Calm     84 % 0.00 in
03:38 51.0 °F 46.3 °F 29.83 in Calm     84 % 0.00 in
03:43 51.1 °F 46.4 °F 29.83 in Calm     84 % 0.00 in
03:48 51.2 °F 46.5 °F 29.83 in Calm     84 % 0.00 in
03:53 51.0 °F 46.3 °F 29.83 in Calm     84 % 0.00 in
03:58 50.9 °F 46.6 °F 29.83 in Calm     85 % 0.00 in
04:03 50.8 °F 46.5 °F 29.83 in Calm     85 % 0.00 in
04:08 50.6 °F 46.3 °F 29.83 in Calm     85 % 0.00 in
04:13 50.3 °F 46.0 °F 29.83 in Calm     85 % 0.00 in
04:18 50.2 °F 46.2 °F 29.83 in Calm     86 % 0.00 in
04:20 50.2 °F 46.2 °F 29.83 in Calm     86 % 0.00 in
04:25 50.0 °F 46.0 °F 29.83 in Calm     86 % 0.00 in
04:30 49.9 °F 46.2 °F 29.83 in Calm     87 % 0.00 in
04:35 49.9 °F 46.2 °F 29.83 in Calm     87 % 0.00 in
04:40 49.7 °F 46.0 °F 29.83 in Calm     87 % 0.00 in
04:45 49.5 °F 45.8 °F 29.83 in Calm     87 % 0.00 in
04:50 49.5 °F 45.8 °F 29.83 in Calm     87 % 0.00 in
04:55 49.6 °F 45.9 °F 29.83 in Calm     87 % 0.00 in
05:00 49.6 °F 45.9 °F 29.82 in Calm     87 % 0.00 in
05:05 49.5 °F 45.8 °F 29.83 in Calm     87 % 0.00 in
05:10 49.4 °F 45.7 °F 29.83 in Calm     87 % 0.00 in
05:15 49.4 °F 45.7 °F 29.83 in Calm     87 % 0.00 in
05:16 49.3 °F 45.6 °F 29.83 in Calm     87 % 0.00 in
05:21 49.3 °F 45.6 °F 29.83 in Calm     87 % 0.00 in
05:26 49.3 °F 45.6 °F 29.83 in Calm     87 % 0.00 in
05:31 49.3 °F 45.6 °F 29.83 in Calm     87 % 0.00 in
05:33 49.4 °F 45.7 °F 29.83 in Calm     87 % 0.00 in
05:38 49.5 °F 45.8 °F 29.83 in Calm     87 % 0.00 in
05:43 49.7 °F 45.7 °F 29.84 in Calm     86 % 0.00 in
05:48 49.6 °F 45.6 °F 29.84 in Calm     86 % 0.00 in
05:53 49.5 °F 45.5 °F 29.84 in Calm     86 % 0.00 in
05:58 49.2 °F 45.2 °F 29.84 in Calm     86 % 0.00 in
06:03 48.8 °F 45.1 °F 29.84 in Calm     87 % 0.00 in
06:08 48.5 °F 44.8 °F 29.84 in Calm     87 % 0.00 in
06:13 48.4 °F 45.0 °F 29.84 in Calm     88 % 0.00 in
06:18 48.4 °F 45.0 °F 29.84 in Calm     88 % 0.00 in
06:23 48.4 °F 45.0 °F 29.85 in Calm     88 % 0.00 in
06:28 48.4 °F 45.0 °F 29.85 in Calm     88 % 0.00 in
06:33 48.4 °F 45.0 °F 29.85 in Calm     88 % 0.00 in
06:38 48.2 °F 44.8 °F 29.85 in Calm     88 % 0.00 in
06:43 48.1 °F 44.7 °F 29.85 in Calm     88 % 0.00 in
06:48 48.0 °F 44.9 °F 29.85 in Calm     89 % 0.00 in
06:53 47.9 °F 44.8 °F 29.85 in Calm     89 % 0.00 in
06:58 47.9 °F 44.8 °F 29.85 in Calm     89 % 0.00 in
07:03 47.9 °F 44.8 °F 29.86 in Calm     89 % 0.00 in
07:08 48.0 °F 44.9 °F 29.86 in Calm     89 % 0.00 in
07:13 48.0 °F 44.9 °F 29.86 in Calm     89 % 0.00 in
07:18 48.1 °F 45.0 °F 29.86 in Calm     89 % 0.00 in
07:23 48.4 °F 45.3 °F 29.87 in Calm     89 % 0.00 in
07:28 48.7 °F 45.6 °F 29.87 in Calm     89 % 0.00 in
07:33 49.1 °F 45.7 °F 29.87 in Calm     88 % 0.00 in
07:38 49.5 °F 45.8 °F 29.87 in Calm     87 % 0.00 in
07:43 49.9 °F 46.2 °F 29.87 in Calm     87 % 0.00 in
07:48 50.3 °F 46.6 °F 29.88 in Calm     87 % 0.00 in
07:53 50.6 °F 46.6 °F 29.88 in Calm     86 % 0.00 in
07:58 51.1 °F 47.1 °F 29.88 in Calm     86 % 0.00 in
08:03 52.2 °F 47.8 °F 29.88 in SE 1.2 mph 1.2 mph 85 % 0.00 in
08:08 53.7 °F 48.7 °F 29.89 in Calm     83 % 0.00 in
08:13 54.9 °F 48.8 °F 29.89 in Calm     80 % 0.00 in
08:18 55.6 °F 48.8 °F 29.89 in Calm     78 % 0.00 in
08:23 56.6 °F 49.1 °F 29.89 in SSW 1.2 mph   76 % 0.00 in
08:28 57.2 °F 48.6 °F 29.89 in ESE 1.2 mph 1.2 mph 73 % 0.00 in
08:33 57.6 °F 48.6 °F 29.89 in ESE 2.0 mph 2.0 mph 72 % 0.00 in
08:38 58.0 °F 48.6 °F 29.89 in SE 1.2 mph 1.2 mph 71 % 0.00 in
08:43 58.4 °F 49.0 °F 29.89 in ESE 1.2 mph 1.2 mph 71 % 0.00 in
08:49 59.2 °F 49.4 °F 29.90 in Calm     70 % 0.00 in
08:54 60.1 °F 49.5 °F 29.90 in Calm   0.1 mph 68 % 0.00 in
08:59 60.5 °F 49.5 °F 29.90 in ESE 1.2 mph 1.2 mph 67 % 0.00 in
09:04 60.8 °F 48.5 °F 29.90 in ENE 1.2 mph 1.2 mph 64 % 0.00 in
09:09 60.9 °F 48.6 °F 29.90 in East 2.3 mph 2.3 mph 64 % 0.00 in
09:14 61.1 °F 48.8 °F 29.90 in East 2.3 mph 2.3 mph 64 % 0.00 in
09:19 61.1 °F 48.8 °F 29.90 in NE 3.5 mph 3.5 mph 64 % 0.00 in
09:24 61.6 °F 48.9 °F 29.90 in SSW 3.0 mph 3.0 mph 63 % 0.00 in
09:29 62.2 °F 49.0 °F 29.90 in SSE 2.0 mph 2.0 mph 62 % 0.00 in
09:34 62.5 °F 48.9 °F 29.90 in South 3.5 mph 3.5 mph 61 % 0.00 in
09:39 62.9 °F 49.2 °F 29.90 in SSE 3.5 mph 3.5 mph 61 % 0.00 in
09:44 63.4 °F 49.3 °F 29.90 in SE 2.3 mph 2.3 mph 60 % 0.00 in
09:49 64.0 °F 49.4 °F 29.90 in SE 1.2 mph 1.2 mph 59 % 0.00 in
09:54 64.7 °F 49.6 °F 29.90 in SE 3.5 mph 3.5 mph 58 % 0.00 in
09:59 65.0 °F 49.4 °F 29.90 in East 3.5 mph 3.5 mph 57 % 0.00 in
10:04 65.3 °F 49.7 °F 29.90 in SSW 1.0 mph 1.0 mph 57 % 0.00 in
10:09 65.6 °F 49.0 °F 29.90 in SSE 2.3 mph 2.3 mph 55 % 0.00 in
10:14 65.4 °F 49.3 °F 29.90 in East 3.5 mph 3.5 mph 56 % 0.00 in
10:19 65.4 °F 49.8 °F 29.90 in East 3.5 mph 3.5 mph 57 % 0.00 in
10:24 66.0 °F 49.4 °F 29.90 in South 1.2 mph 1.2 mph 55 % 0.00 in
10:29 66.5 °F 49.8 °F 29.90 in SSE 2.3 mph 2.3 mph 55 % 0.00 in
10:34 66.7 °F 50.0 °F 29.90 in SSW 1.2 mph   55 % 0.00 in
10:39 67.4 °F 50.2 °F 29.90 in ENE 4.0 mph 4.0 mph 54 % 0.00 in
10:41 67.5 °F 50.3 °F 29.90 in South 2.0 mph 2.0 mph 54 % 0.00 in
10:46 67.9 °F 49.6 °F 29.90 in SSE 5.8 mph 5.8 mph 52 % 0.00 in
10:51 68.3 °F 50.0 °F 29.90 in SE 4.0 mph 4.0 mph 52 % 0.00 in
10:56 68.9 °F 50.5 °F 29.90 in SW 2.3 mph 2.3 mph 52 % 0.00 in
11:02 69.3 °F 50.9 °F 29.89 in SE 3.5 mph 3.5 mph 52 % 0.00 in
11:07 69.6 °F 49.6 °F 29.89 in South 3.5 mph 3.5 mph 49 % 0.00 in
11:12 69.9 °F 49.3 °F 29.89 in East 3.5 mph 3.5 mph 48 % 0.00 in
11:17 69.8 °F 49.2 °F 29.89 in South 2.3 mph 2.3 mph 48 % 0.00 in
11:22 70.2 °F 49.6 °F 29.89 in ENE 1.2 mph 1.2 mph 48 % 0.00 in
11:27 70.7 °F 49.5 °F 29.89 in SSE 3.5 mph 3.5 mph 47 % 0.00 in
11:32 70.8 °F 49.6 °F 29.89 in SE 1.2 mph 1.2 mph 47 % 0.00 in
11:37 71.1 °F 49.3 °F 29.89 in SW 3.5 mph 3.5 mph 46 % 0.00 in
11:42 71.4 °F 50.1 °F 29.89 in North 1.2 mph 1.2 mph 47 % 0.00 in
11:47 71.6 °F 49.7 °F 29.89 in Calm     46 % 0.00 in
11:52 72.0 °F 47.6 °F 29.89 in SSW 2.3 mph 2.3 mph 42 % 0.00 in
11:57 72.4 °F 48.6 °F 29.89 in ESE 2.3 mph 2.3 mph 43 % 0.00 in
12:02 72.2 °F 49.7 °F 29.88 in SSW 2.3 mph 2.3 mph 45 % 0.00 in
12:07 72.6 °F 50.6 °F 29.88 in East 3.5 mph 3.5 mph 46 % 0.00 in
12:12 72.9 °F 49.7 °F 29.88 in Calm     44 % 0.00 in
12:17 73.1 °F 50.5 °F 29.88 in SE 2.3 mph 2.3 mph 45 % 0.00 in
12:22 73.1 °F 49.3 °F 29.88 in SSW 3.5 mph 3.5 mph 43 % 0.00 in
12:27 73.1 °F 49.9 °F 29.88 in North 1.2 mph 1.2 mph 44 % 0.00 in
12:32 73.5 °F 50.2 °F 29.88 in SW 2.3 mph 2.3 mph 44 % 0.00 in
12:33 73.6 °F 50.9 °F 29.88 in North 3.5 mph 3.5 mph 45 % 0.00 in
12:38 74.2 °F 48.3 °F 29.88 in South 2.3 mph 2.3 mph 40 % 0.00 in
12:43 74.6 °F 48.0 °F 29.88 in South 3.5 mph 3.5 mph 39 % 0.00 in
12:48 74.4 °F 48.5 °F 29.88 in WNW 3.5 mph 3.5 mph 40 % 0.00 in
12:53 74.1 °F 48.9 °F 29.88 in ESE 2.3 mph 2.3 mph 41 % 0.00 in
12:58 74.3 °F 49.1 °F 29.88 in NNE 2.3 mph 2.3 mph 41 % 0.00 in
13:03 74.9 °F 48.9 °F 29.87 in SSE 4.0 mph 4.0 mph 40 % 0.00 in
13:08 75.0 °F 49.0 °F 29.87 in NE 1.2 mph   40 % 0.00 in
13:13 75.4 °F 50.1 °F 29.87 in SW 3.5 mph 3.5 mph 41 % 0.00 in
13:18 75.7 °F 47.6 °F 29.87 in West 3.5 mph 3.5 mph 37 % 0.00 in
13:23 75.3 °F 46.5 °F 29.87 in SE 3.5 mph 3.5 mph 36 % 0.00 in
13:28 76.0 °F 46.4 °F 29.87 in SSE 2.3 mph 2.3 mph 35 % 0.00 in
13:33 76.2 °F 48.0 °F 29.87 in SE 2.3 mph 2.3 mph 37 % 0.00 in
13:38 76.0 °F 46.4 °F 29.87 in WNW 2.0 mph 2.0 mph 35 % 0.00 in
13:43 75.8 °F 48.4 °F 29.86 in SSE 2.0 mph 2.0 mph 38 % 0.00 in
13:48 76.2 °F 46.5 °F 29.87 in East 2.3 mph 2.3 mph 35 % 0.00 in
13:53 76.2 °F 48.0 °F 29.86 in East 1.2 mph 1.2 mph 37 % 0.00 in
13:58 76.7 °F 46.2 °F 29.86 in SSE 1.2 mph 1.2 mph 34 % 0.00 in
14:03 77.2 °F 48.2 °F 29.86 in East 3.5 mph 3.5 mph 36 % 0.00 in
14:08 77.5 °F 46.9 °F 29.86 in SW 2.3 mph 2.3 mph 34 % 0.00 in
14:13 77.5 °F 43.6 °F 29.86 in WNW 2.3 mph 2.3 mph 30 % 0.00 in
14:18 77.0 °F 45.7 °F 29.86 in SE 1.2 mph   33 % 0.00 in
14:23 77.1 °F 44.1 °F 29.86 in WNW 1.2 mph 1.2 mph 31 % 0.00 in
14:28 76.6 °F 46.1 °F 29.86 in NW 2.3 mph 2.3 mph 34 % 0.00 in
14:33 76.4 °F 45.9 °F 29.86 in Calm     34 % 0.00 in
14:38 76.7 °F 43.8 °F 29.85 in WNW 1.2 mph 1.2 mph 31 % 0.00 in
14:43 77.3 °F 46.7 °F 29.85 in SE 1.2 mph 1.5 mph 34 % 0.00 in
14:48 77.5 °F 44.5 °F 29.85 in NNW 3.5 mph 3.5 mph 31 % 0.00 in
14:53 77.1 °F 45.0 °F 29.85 in SE 3.5 mph 3.5 mph 32 % 0.00 in
14:58 76.9 °F 46.4 °F 29.85 in WNW 1.2 mph 1.2 mph 34 % 0.00 in
15:03 76.9 °F 44.8 °F 29.85 in NW 2.3 mph 2.3 mph 32 % 0.00 in
15:08 77.5 °F 45.3 °F 29.85 in Calm     32 % 0.00 in
15:14 77.8 °F 44.7 °F 29.85 in NW 1.2 mph 1.2 mph 31 % 0.00 in
15:19 77.5 °F 44.5 °F 29.85 in SE 1.2 mph 1.2 mph 31 % 0.00 in
15:24 77.5 °F 43.6 °F 29.85 in NW 2.3 mph 2.3 mph 30 % 0.00 in
15:28 77.2 °F 43.4 °F 29.85 in South 1.2 mph   30 % 0.00 in
15:34 77.5 °F 45.3 °F 29.84 in SW 2.3 mph 2.3 mph 32 % 0.00 in
15:39 77.9 °F 45.7 °F 29.84 in NW 2.3 mph 2.3 mph 32 % 0.00 in
15:44 77.6 °F 45.4 °F 29.84 in ESE 3.5 mph 3.5 mph 32 % 0.00 in
15:49 77.1 °F 44.1 °F 29.84 in Calm     31 % 0.00 in
15:54 77.1 °F 44.1 °F 29.84 in WNW 2.3 mph 2.3 mph 31 % 0.00 in
15:59 76.8 °F 43.9 °F 29.84 in West 2.3 mph 2.3 mph 31 % 0.00 in
16:04 76.6 °F 43.7 °F 29.84 in NNW 1.2 mph 1.2 mph 31 % 0.00 in
16:09 76.5 °F 43.6 °F 29.84 in WNW 1.2 mph 1.2 mph 31 % 0.00 in
16:14 76.5 °F 42.7 °F 29.84 in WNW 3.5 mph 3.5 mph 30 % 0.00 in
16:19 76.3 °F 42.6 °F 29.84 in WNW 2.3 mph 2.3 mph 30 % 0.00 in
16:20 76.3 °F 42.6 °F 29.84 in WNW 2.3 mph 2.3 mph 30 % 0.00 in
16:25 76.1 °F 41.5 °F 29.84 in WNW 1.2 mph 1.2 mph 29 % 0.00 in
16:30 75.9 °F 42.2 °F 29.83 in West 1.2 mph 1.2 mph 30 % 0.00 in
16:35 75.9 °F 43.1 °F 29.83 in SW 1.2 mph 1.2 mph 31 % 0.00 in
16:40 75.9 °F 43.1 °F 29.83 in SSE 1.2 mph 1.2 mph 31 % 0.00 in
16:45 75.7 °F 42.1 °F 29.83 in Calm     30 % 0.00 in
16:50 76.0 °F 44.0 °F 29.83 in WNW 2.3 mph 2.3 mph 32 % 0.00 in
16:55 76.0 °F 44.0 °F 29.83 in Calm     32 % 0.00 in
17:00 76.7 °F 42.0 °F 29.83 in NW 1.2 mph 1.2 mph 29 % 0.00 in
17:05 76.8 °F 42.1 °F 29.83 in WNW 2.0 mph 2.0 mph 29 % 0.00 in
17:10 76.5 °F 42.7 °F 29.83 in WNW 1.2 mph   30 % 0.00 in
17:15 76.4 °F 39.9 °F 29.83 in SE 1.2 mph 1.2 mph 27 % 0.00 in
17:20 76.0 °F 40.5 °F 29.83 in Calm     28 % 0.00 in
17:25 75.7 °F 42.1 °F 29.83 in SE 1.2 mph 1.2 mph 30 % 0.00 in
17:30 75.3 °F 43.4 °F 29.83 in Calm   0.1 mph 32 % 0.00 in
17:35 75.1 °F 44.0 °F 29.83 in Calm     33 % 0.00 in
17:40 74.9 °F 43.0 °F 29.83 in Calm     32 % 0.00 in
17:45 74.6 °F 44.4 °F 29.83 in Calm     34 % 0.00 in
17:50 74.4 °F 45.7 °F 29.83 in Calm     36 % 0.00 in
17:55 74.0 °F 43.1 °F 29.83 in Calm     33 % 0.00 in
18:00 73.8 °F 43.7 °F 29.83 in Calm     34 % 0.00 in
18:05 73.5 °F 43.4 °F 29.83 in Calm     34 % 0.00 in
18:10 73.1 °F 43.1 °F 29.83 in Calm     34 % 0.00 in
18:15 72.8 °F 45.7 °F 29.83 in Calm     38 % 0.00 in
18:20 72.3 °F 45.9 °F 29.83 in Calm     39 % 0.00 in
18:25 71.9 °F 46.3 °F 29.83 in Calm     40 % 0.00 in
18:30 71.5 °F 45.9 °F 29.83 in Calm     40 % 0.00 in
18:33 71.4 °F 47.1 °F 29.83 in Calm     42 % 0.00 in
18:38 71.2 °F 46.9 °F 29.83 in Calm     42 % 0.00 in
18:43 70.7 °F 47.7 °F 29.83 in Calm     44 % 0.00 in
18:48 70.1 °F 47.2 °F 29.83 in Calm     44 % 0.00 in
18:53 69.5 °F 47.2 °F 29.83 in Calm     45 % 0.00 in
18:58 69.0 °F 48.5 °F 29.83 in Calm     48 % 0.00 in
19:03 68.3 °F 49.5 °F 29.83 in Calm     51 % 0.00 in
19:08 67.7 °F 49.4 °F 29.83 in Calm     52 % 0.00 in
19:13 67.2 °F 49.0 °F 29.83 in Calm     52 % 0.00 in
19:18 66.6 °F 48.9 °F 29.83 in Calm     53 % 0.00 in
19:23 66.0 °F 49.4 °F 29.83 in Calm     55 % 0.00 in
19:24 65.8 °F 49.7 °F 29.83 in Calm     56 % 0.00 in
19:29 65.2 °F 51.4 °F 29.83 in Calm     61 % 0.00 in
19:34 64.7 °F 51.4 °F 29.83 in Calm     62 % 0.00 in
19:39 64.3 °F 51.0 °F 29.83 in Calm     62 % 0.00 in
19:44 63.9 °F 51.1 °F 29.83 in Calm     63 % 0.00 in
19:49 63.6 °F 51.2 °F 29.84 in Calm     64 % 0.00 in
19:54 63.2 °F 50.8 °F 29.84 in Calm     64 % 0.00 in
19:59 62.8 °F 50.9 °F 29.84 in Calm     65 % 0.00 in
20:04 62.4 °F 51.7 °F 29.84 in Calm     68 % 0.00 in
20:10 62.3 °F 52.0 °F 29.84 in Calm     69 % 0.00 in
20:20 62.0 °F 50.5 °F 29.84 in Calm     66 % 0.00 in
20:24 62.0 °F 50.1 °F 29.85 in Calm     65 % 0.00 in
20:25 62.0 °F 50.1 °F 29.84 in Calm     65 % 0.00 in
20:30 61.9 °F 50.8 °F 29.85 in Calm     67 % 0.00 in
20:35 61.7 °F 51.4 °F 29.85 in Calm     69 % 0.00 in
20:40 61.5 °F 50.8 °F 29.85 in Calm     68 % 0.00 in
20:45 61.2 °F 50.9 °F 29.85 in Calm     69 % 0.00 in
20:50 61.0 °F 50.8 °F 29.85 in Calm     69 % 0.00 in
20:55 60.7 °F 51.2 °F 29.85 in Calm     71 % 0.00 in
21:00 60.5 °F 51.8 °F 29.85 in Calm     73 % 0.00 in
21:05 60.2 °F 51.1 °F 29.85 in Calm     72 % 0.00 in
21:10 60.1 °F 51.0 °F 29.85 in Calm     72 % 0.00 in
21:15 60.1 °F 51.0 °F 29.85 in Calm     72 % 0.00 in
21:20 60.1 °F 51.4 °F 29.85 in Calm     73 % 0.00 in
21:25 60.0 °F 50.6 °F 29.85 in Calm     71 % 0.00 in
21:30 59.6 °F 50.6 °F 29.85 in Calm     72 % 0.00 in
21:35 59.3 °F 50.3 °F 29.85 in Calm     72 % 0.00 in
21:40 59.3 °F 50.3 °F 29.85 in Calm     72 % 0.00 in
21:45 59.5 °F 50.5 °F 29.85 in Calm     72 % 0.00 in
21:50 59.5 °F 50.1 °F 29.85 in Calm     71 % 0.00 in
21:55 60.2 °F 49.6 °F 29.85 in Calm     68 % 0.00 in
22:00 61.0 °F 49.1 °F 29.85 in NNW 1.2 mph 1.2 mph 65 % 0.00 in
22:05 61.4 °F 48.3 °F 29.85 in Calm     62 % 0.00 in
22:10 61.5 °F 47.9 °F 29.85 in Calm     61 % 0.00 in
22:15 61.6 °F 48.0 °F 29.85 in Calm     61 % 0.00 in
22:20 61.3 °F 48.6 °F 29.85 in Calm     63 % 0.00 in
22:25 60.7 °F 48.4 °F 29.86 in Calm     64 % 0.00 in
22:30 60.4 °F 49.4 °F 29.86 in Calm     67 % 0.00 in
22:35 60.0 °F 49.8 °F 29.86 in Calm     69 % 0.00 in
22:40 59.1 °F 49.7 °F 29.86 in SSE 1.2 mph   71 % 0.00 in
22:45 57.6 °F 49.0 °F 29.86 in Calm     73 % 0.00 in
22:50 56.9 °F 49.4 °F 29.86 in Calm     76 % 0.00 in
22:55 56.5 °F 49.7 °F 29.86 in Calm     78 % 0.00 in
23:00 56.3 °F 49.9 °F 29.86 in Calm     79 % 0.00 in
23:05 56.1 °F 49.7 °F 29.86 in Calm     79 % 0.00 in
23:10 55.9 °F 49.5 °F 29.87 in Calm     79 % 0.00 in
23:15 55.7 °F 49.6 °F 29.87 in Calm     80 % 0.00 in
23:20 55.7 °F 50.0 °F 29.87 in Calm     81 % 0.00 in
23:25 55.6 °F 49.9 °F 29.87 in Calm     81 % 0.00 in
23:30 55.5 °F 49.8 °F 29.87 in Calm     81 % 0.00 in
23:35 55.6 °F 49.5 °F 29.87 in Calm     80 % 0.00 in
23:40 55.7 °F 49.3 °F 29.87 in Calm     79 % 0.00 in
23:45 55.8 °F 49.4 °F 29.87 in Calm     79 % 0.00 in
23:50 55.9 °F 48.8 °F 29.87 in Calm     77 % 0.00 in
23:55 56.0 °F 48.9 °F 29.87 in Calm     77 % 0.00 in
Park Place, Exeter, Tulare County, California, USA
Compliments of Weather Underground - 2.75 mb